sensor_id;sensor_type;location;lat;lon;timestamp;P1;durP1;ratioP1;P2;durP2;ratioP2
44270;SDS011;29963;44.594;11.368;2022-10-16T00:01:17;10.38;;;8.50;;
44270;SDS011;29963;44.594;11.368;2022-10-16T00:03:45;9.48;;;8.43;;
44270;SDS011;29963;44.594;11.368;2022-10-16T00:06:12;27.80;;;9.50;;
44270;SDS011;29963;44.594;11.368;2022-10-16T00:08:39;11.00;;;8.48;;
44270;SDS011;29963;44.594;11.368;2022-10-16T00:11:06;9.90;;;7.82;;
44270;SDS011;29963;44.594;11.368;2022-10-16T00:13:34;12.63;;;8.48;;
44270;SDS011;29963;44.594;11.368;2022-10-16T00:16:01;9.85;;;8.85;;
44270;SDS011;29963;44.594;11.368;2022-10-16T00:18:28;8.32;;;7.53;;
44270;SDS011;29963;44.594;11.368;2022-10-16T00:20:55;10.38;;;8.10;;
44270;SDS011;29963;44.594;11.368;2022-10-16T00:23:21;12.35;;;9.55;;
44270;SDS011;29963;44.594;11.368;2022-10-16T00:26:21;10.30;;;8.43;;
44270;SDS011;29963;44.594;11.368;2022-10-16T00:28:41;15.15;;;8.70;;
44270;SDS011;29963;44.594;11.368;2022-10-16T00:31:07;9.93;;;8.95;;
44270;SDS011;29963;44.594;11.368;2022-10-16T00:33:36;8.88;;;7.97;;
44270;SDS011;29963;44.594;11.368;2022-10-16T00:36:03;11.93;;;8.88;;
44270;SDS011;29963;44.594;11.368;2022-10-16T00:38:29;13.98;;;8.88;;
44270;SDS011;29963;44.594;11.368;2022-10-16T00:40:55;13.57;;;8.75;;
44270;SDS011;29963;44.594;11.368;2022-10-16T00:49:11;12.05;;;8.95;;
44270;SDS011;29963;44.594;11.368;2022-10-16T00:51:43;10.27;;;8.48;;
44270;SDS011;29963;44.594;11.368;2022-10-16T00:54:28;10.98;;;8.23;;
44270;SDS011;29963;44.594;11.368;2022-10-16T00:56:56;11.75;;;9.00;;
44270;SDS011;29963;44.594;11.368;2022-10-16T00:59:25;9.88;;;8.85;;
44270;SDS011;29963;44.594;11.368;2022-10-16T01:01:57;13.30;;;8.02;;
44270;SDS011;29963;44.594;11.368;2022-10-16T01:04:23;10.43;;;7.88;;
44270;SDS011;29963;44.594;11.368;2022-10-16T01:14:40;12.25;;;8.65;;
44270;SDS011;29963;44.594;11.368;2022-10-16T01:17:22;11.38;;;8.65;;
44270;SDS011;29963;44.594;11.368;2022-10-16T01:22:57;12.55;;;8.98;;
44270;SDS011;29963;44.594;11.368;2022-10-16T01:25:46;12.75;;;8.85;;
44270;SDS011;29963;44.594;11.368;2022-10-16T01:28:14;9.65;;;7.93;;
44270;SDS011;29963;44.594;11.368;2022-10-16T01:30:42;12.43;;;8.13;;
44270;SDS011;29963;44.594;11.368;2022-10-16T01:33:13;8.88;;;7.88;;
44270;SDS011;29963;44.594;11.368;2022-10-16T01:35:54;12.35;;;8.80;;
44270;SDS011;29963;44.594;11.368;2022-10-16T01:38:32;12.57;;;8.77;;
44270;SDS011;29963;44.594;11.368;2022-10-16T01:41:09;9.90;;;8.57;;
44270;SDS011;29963;44.594;11.368;2022-10-16T01:43:49;9.52;;;8.52;;
44270;SDS011;29963;44.594;11.368;2022-10-16T01:46:23;13.07;;;8.77;;
44270;SDS011;29963;44.594;11.368;2022-10-16T01:48:51;10.63;;;9.13;;
44270;SDS011;29963;44.594;11.368;2022-10-16T01:51:18;12.57;;;9.45;;
44270;SDS011;29963;44.594;11.368;2022-10-16T01:53:47;12.15;;;9.13;;
44270;SDS011;29963;44.594;11.368;2022-10-16T01:56:15;11.93;;;7.88;;
44270;SDS011;29963;44.594;11.368;2022-10-16T01:58:47;10.10;;;8.93;;
44270;SDS011;29963;44.594;11.368;2022-10-16T02:01:18;12.45;;;8.20;;
44270;SDS011;29963;44.594;11.368;2022-10-16T02:03:46;10.95;;;8.85;;
44270;SDS011;29963;44.594;11.368;2022-10-16T02:06:15;9.52;;;8.52;;
44270;SDS011;29963;44.594;11.368;2022-10-16T02:08:41;14.18;;;8.85;;
44270;SDS011;29963;44.594;11.368;2022-10-16T02:11:09;10.50;;;8.20;;
44270;SDS011;29963;44.594;11.368;2022-10-16T02:16:10;11.77;;;8.93;;
44270;SDS011;29963;44.594;11.368;2022-10-16T02:18:37;10.77;;;9.05;;
44270;SDS011;29963;44.594;11.368;2022-10-16T02:23:51;9.95;;;8.52;;
44270;SDS011;29963;44.594;11.368;2022-10-16T02:26:27;8.38;;;7.47;;
44270;SDS011;29963;44.594;11.368;2022-10-16T02:29:02;10.00;;;8.45;;
44270;SDS011;29963;44.594;11.368;2022-10-16T02:31:35;13.85;;;8.38;;
44270;SDS011;29963;44.594;11.368;2022-10-16T02:34:03;8.75;;;7.75;;
44270;SDS011;29963;44.594;11.368;2022-10-16T02:36:30;13.80;;;8.68;;
44270;SDS011;29963;44.594;11.368;2022-10-16T02:38:57;13.18;;;8.52;;
44270;SDS011;29963;44.594;11.368;2022-10-16T02:41:26;9.52;;;8.52;;
44270;SDS011;29963;44.594;11.368;2022-10-16T02:43:52;11.43;;;8.25;;
44270;SDS011;29963;44.594;11.368;2022-10-16T02:46:19;12.18;;;8.82;;
44270;SDS011;29963;44.594;11.368;2022-10-16T02:48:45;12.35;;;8.10;;
44270;SDS011;29963;44.594;11.368;2022-10-16T02:51:11;9.77;;;8.77;;
44270;SDS011;29963;44.594;11.368;2022-10-16T02:53:37;12.60;;;7.82;;
44270;SDS011;29963;44.594;11.368;2022-10-16T02:56:02;9.43;;;8.23;;
44270;SDS011;29963;44.594;11.368;2022-10-16T02:58:28;11.25;;;8.10;;
44270;SDS011;29963;44.594;11.368;2022-10-16T03:00:54;9.57;;;8.50;;
44270;SDS011;29963;44.594;11.368;2022-10-16T03:03:20;10.65;;;8.30;;
44270;SDS011;29963;44.594;11.368;2022-10-16T03:05:46;12.75;;;9.07;;
44270;SDS011;29963;44.594;11.368;2022-10-16T03:08:12;9.10;;;8.20;;
44270;SDS011;29963;44.594;11.368;2022-10-16T03:10:38;9.35;;;8.27;;
44270;SDS011;29963;44.594;11.368;2022-10-16T03:13:03;9.52;;;7.47;;
44270;SDS011;29963;44.594;11.368;2022-10-16T03:15:32;11.70;;;8.68;;
44270;SDS011;29963;44.594;11.368;2022-10-16T03:17:58;10.35;;;7.38;;
44270;SDS011;29963;44.594;11.368;2022-10-16T03:20:24;10.30;;;8.40;;
44270;SDS011;29963;44.594;11.368;2022-10-16T03:22:50;13.52;;;7.78;;
44270;SDS011;29963;44.594;11.368;2022-10-16T03:25:15;11.77;;;8.88;;
44270;SDS011;29963;44.594;11.368;2022-10-16T03:27:41;9.32;;;8.25;;
44270;SDS011;29963;44.594;11.368;2022-10-16T03:30:07;10.30;;;7.45;;
44270;SDS011;29963;44.594;11.368;2022-10-16T03:32:33;13.35;;;8.05;;
44270;SDS011;29963;44.594;11.368;2022-10-16T03:34:59;14.00;;;8.48;;
44270;SDS011;29963;44.594;11.368;2022-10-16T03:37:24;12.98;;;8.13;;
44270;SDS011;29963;44.594;11.368;2022-10-16T03:39:50;9.10;;;8.18;;
44270;SDS011;29963;44.594;11.368;2022-10-16T03:42:16;9.50;;;8.60;;
44270;SDS011;29963;44.594;11.368;2022-10-16T03:44:42;10.68;;;8.65;;
44270;SDS011;29963;44.594;11.368;2022-10-16T03:47:07;10.43;;;8.30;;
44270;SDS011;29963;44.594;11.368;2022-10-16T03:49:33;10.23;;;8.95;;
44270;SDS011;29963;44.594;11.368;2022-10-16T03:51:59;9.65;;;7.68;;
44270;SDS011;29963;44.594;11.368;2022-10-16T03:54:24;9.43;;;8.50;;
44270;SDS011;29963;44.594;11.368;2022-10-16T03:56:53;11.82;;;8.93;;
44270;SDS011;29963;44.594;11.368;2022-10-16T03:59:18;10.32;;;9.25;;
44270;SDS011;29963;44.594;11.368;2022-10-16T04:01:44;9.88;;;8.88;;
44270;SDS011;29963;44.594;11.368;2022-10-16T04:04:09;9.13;;;8.20;;
44270;SDS011;29963;44.594;11.368;2022-10-16T04:06:35;11.30;;;9.52;;
44270;SDS011;29963;44.594;11.368;2022-10-16T04:09:01;9.82;;;8.85;;
44270;SDS011;29963;44.594;11.368;2022-10-16T04:11:27;11.50;;;9.18;;
44270;SDS011;29963;44.594;11.368;2022-10-16T04:13:52;10.43;;;9.43;;
44270;SDS011;29963;44.594;11.368;2022-10-16T04:16:18;11.10;;;9.30;;
44270;SDS011;29963;44.594;11.368;2022-10-16T04:18:44;10.85;;;9.48;;
44270;SDS011;29963;44.594;11.368;2022-10-16T04:21:09;10.90;;;9.32;;
44270;SDS011;29963;44.594;11.368;2022-10-16T04:23:35;10.63;;;9.52;;
44270;SDS011;29963;44.594;11.368;2022-10-16T04:26:01;11.52;;;8.82;;
44270;SDS011;29963;44.594;11.368;2022-10-16T04:28:27;11.00;;;9.00;;
44270;SDS011;29963;44.594;11.368;2022-10-16T04:30:53;11.68;;;9.07;;
44270;SDS011;29963;44.594;11.368;2022-10-16T04:33:18;13.68;;;9.80;;
44270;SDS011;29963;44.594;11.368;2022-10-16T04:35:44;13.70;;;10.02;;
44270;SDS011;29963;44.594;11.368;2022-10-16T04:38:10;11.55;;;9.15;;
44270;SDS011;29963;44.594;11.368;2022-10-16T04:40:35;11.27;;;9.73;;
44270;SDS011;29963;44.594;11.368;2022-10-16T04:43:02;13.48;;;10.95;;
44270;SDS011;29963;44.594;11.368;2022-10-16T04:45:28;11.95;;;9.73;;
44270;SDS011;29963;44.594;11.368;2022-10-16T04:47:57;16.60;;;11.32;;
44270;SDS011;29963;44.594;11.368;2022-10-16T04:50:24;13.68;;;10.07;;
44270;SDS011;29963;44.594;11.368;2022-10-16T04:52:50;12.90;;;10.02;;
44270;SDS011;29963;44.594;11.368;2022-10-16T04:55:15;11.65;;;10.25;;
44270;SDS011;29963;44.594;11.368;2022-10-16T04:57:41;13.82;;;9.98;;
44270;SDS011;29963;44.594;11.368;2022-10-16T05:00:07;11.02;;;10.00;;
44270;SDS011;29963;44.594;11.368;2022-10-16T05:02:33;14.98;;;10.15;;
44270;SDS011;29963;44.594;11.368;2022-10-16T05:05:02;11.45;;;10.25;;
44270;SDS011;29963;44.594;11.368;2022-10-16T05:07:28;13.15;;;10.48;;
44270;SDS011;29963;44.594;11.368;2022-10-16T05:09:54;12.05;;;9.45;;
44270;SDS011;29963;44.594;11.368;2022-10-16T05:12:19;15.15;;;10.63;;
44270;SDS011;29963;44.594;11.368;2022-10-16T05:14:45;11.73;;;9.70;;
44270;SDS011;29963;44.594;11.368;2022-10-16T05:17:11;17.92;;;10.73;;
44270;SDS011;29963;44.594;11.368;2022-10-16T05:19:36;11.15;;;9.88;;
44270;SDS011;29963;44.594;11.368;2022-10-16T05:22:02;12.68;;;9.77;;
44270;SDS011;29963;44.594;11.368;2022-10-16T05:24:27;12.93;;;10.35;;
44270;SDS011;29963;44.594;11.368;2022-10-16T05:26:53;11.30;;;9.77;;
44270;SDS011;29963;44.594;11.368;2022-10-16T05:29:19;17.45;;;10.68;;
44270;SDS011;29963;44.594;11.368;2022-10-16T05:31:45;12.23;;;9.90;;
44270;SDS011;29963;44.594;11.368;2022-10-16T05:34:10;13.38;;;9.25;;
44270;SDS011;29963;44.594;11.368;2022-10-16T05:36:36;11.50;;;10.27;;
44270;SDS011;29963;44.594;11.368;2022-10-16T05:39:02;14.32;;;10.25;;
44270;SDS011;29963;44.594;11.368;2022-10-16T05:41:28;21.48;;;12.38;;
44270;SDS011;29963;44.594;11.368;2022-10-16T05:43:53;16.15;;;11.57;;
44270;SDS011;29963;44.594;11.368;2022-10-16T05:46:19;17.25;;;12.43;;
44270;SDS011;29963;44.594;11.368;2022-10-16T05:48:45;16.75;;;10.07;;
44270;SDS011;29963;44.594;11.368;2022-10-16T05:51:12;15.38;;;11.40;;
44270;SDS011;29963;44.594;11.368;2022-10-16T05:53:39;13.45;;;10.35;;
44270;SDS011;29963;44.594;11.368;2022-10-16T05:56:06;20.85;;;12.27;;
44270;SDS011;29963;44.594;11.368;2022-10-16T05:58:34;16.67;;;11.55;;
44270;SDS011;29963;44.594;11.368;2022-10-16T06:01:02;13.95;;;10.15;;
44270;SDS011;29963;44.594;11.368;2022-10-16T06:03:31;12.65;;;10.07;;
44270;SDS011;29963;44.594;11.368;2022-10-16T06:05:58;10.73;;;9.52;;
44270;SDS011;29963;44.594;11.368;2022-10-16T06:08:23;12.30;;;10.93;;
44270;SDS011;29963;44.594;11.368;2022-10-16T06:10:59;16.52;;;10.43;;
44270;SDS011;29963;44.594;11.368;2022-10-16T06:13:27;12.70;;;9.43;;
44270;SDS011;29963;44.594;11.368;2022-10-16T06:15:52;13.00;;;11.27;;
44270;SDS011;29963;44.594;11.368;2022-10-16T06:18:18;12.43;;;9.57;;
44270;SDS011;29963;44.594;11.368;2022-10-16T06:20:43;14.75;;;10.15;;
44270;SDS011;29963;44.594;11.368;2022-10-16T06:23:09;10.48;;;9.48;;
44270;SDS011;29963;44.594;11.368;2022-10-16T06:25:35;13.95;;;9.90;;
44270;SDS011;29963;44.594;11.368;2022-10-16T06:28:00;13.75;;;11.85;;
44270;SDS011;29963;44.594;11.368;2022-10-16T06:30:26;13.23;;;10.70;;
44270;SDS011;29963;44.594;11.368;2022-10-16T06:32:52;15.75;;;11.13;;
44270;SDS011;29963;44.594;11.368;2022-10-16T06:35:17;13.77;;;10.23;;
44270;SDS011;29963;44.594;11.368;2022-10-16T06:37:43;14.38;;;10.88;;
44270;SDS011;29963;44.594;11.368;2022-10-16T06:40:09;12.80;;;10.00;;
44270;SDS011;29963;44.594;11.368;2022-10-16T06:42:34;14.13;;;9.80;;
44270;SDS011;29963;44.594;11.368;2022-10-16T06:45:00;14.80;;;11.30;;
44270;SDS011;29963;44.594;11.368;2022-10-16T06:47:27;11.27;;;10.02;;
44270;SDS011;29963;44.594;11.368;2022-10-16T06:49:52;12.23;;;10.93;;
44270;SDS011;29963;44.594;11.368;2022-10-16T06:52:18;12.38;;;9.40;;
44270;SDS011;29963;44.594;11.368;2022-10-16T06:54:44;13.55;;;10.85;;
44270;SDS011;29963;44.594;11.368;2022-10-16T06:57:09;12.20;;;10.02;;
44270;SDS011;29963;44.594;11.368;2022-10-16T06:59:35;13.98;;;9.85;;
44270;SDS011;29963;44.594;11.368;2022-10-16T07:02:01;12.05;;;10.73;;
44270;SDS011;29963;44.594;11.368;2022-10-16T07:04:26;10.18;;;9.15;;
44270;SDS011;29963;44.594;11.368;2022-10-16T07:06:52;15.82;;;9.52;;
44270;SDS011;29963;44.594;11.368;2022-10-16T07:09:17;11.95;;;9.50;;
44270;SDS011;29963;44.594;11.368;2022-10-16T07:11:43;14.20;;;8.88;;
44270;SDS011;29963;44.594;11.368;2022-10-16T07:14:12;13.35;;;10.00;;
44270;SDS011;29963;44.594;11.368;2022-10-16T07:16:41;9.43;;;8.15;;
44270;SDS011;29963;44.594;11.368;2022-10-16T07:19:07;11.10;;;9.85;;
44270;SDS011;29963;44.594;11.368;2022-10-16T07:21:34;12.27;;;9.10;;
44270;SDS011;29963;44.594;11.368;2022-10-16T07:24:03;13.32;;;8.85;;
44270;SDS011;29963;44.594;11.368;2022-10-16T07:26:31;12.48;;;10.02;;
44270;SDS011;29963;44.594;11.368;2022-10-16T07:28:59;10.93;;;9.80;;
44270;SDS011;29963;44.594;11.368;2022-10-16T07:31:25;16.05;;;10.57;;
44270;SDS011;29963;44.594;11.368;2022-10-16T07:33:51;12.35;;;10.00;;
44270;SDS011;29963;44.594;11.368;2022-10-16T07:36:18;12.32;;;11.02;;
44270;SDS011;29963;44.594;11.368;2022-10-16T07:38:44;13.02;;;9.55;;
44270;SDS011;29963;44.594;11.368;2022-10-16T07:41:11;10.40;;;9.18;;
44270;SDS011;29963;44.594;11.368;2022-10-16T07:43:48;11.52;;;8.80;;
44270;SDS011;29963;44.594;11.368;2022-10-16T07:46:15;12.82;;;10.02;;
44270;SDS011;29963;44.594;11.368;2022-10-16T07:48:41;11.60;;;9.77;;
44270;SDS011;29963;44.594;11.368;2022-10-16T07:51:12;13.15;;;9.50;;
44270;SDS011;29963;44.594;11.368;2022-10-16T07:53:39;10.05;;;8.90;;
44270;SDS011;29963;44.594;11.368;2022-10-16T07:56:05;14.95;;;10.02;;
44270;SDS011;29963;44.594;11.368;2022-10-16T07:58:32;14.50;;;9.57;;
44270;SDS011;29963;44.594;11.368;2022-10-16T08:00:59;17.55;;;10.00;;
44270;SDS011;29963;44.594;11.368;2022-10-16T08:03:28;11.25;;;10.02;;
44270;SDS011;29963;44.594;11.368;2022-10-16T08:05:56;12.10;;;10.00;;
44270;SDS011;29963;44.594;11.368;2022-10-16T08:08:22;13.48;;;10.00;;
44270;SDS011;29963;44.594;11.368;2022-10-16T08:10:48;15.25;;;9.40;;
44270;SDS011;29963;44.594;11.368;2022-10-16T08:13:13;12.13;;;9.85;;
44270;SDS011;29963;44.594;11.368;2022-10-16T08:15:40;13.98;;;10.75;;
44270;SDS011;29963;44.594;11.368;2022-10-16T08:18:06;11.05;;;9.68;;
44270;SDS011;29963;44.594;11.368;2022-10-16T08:20:32;11.35;;;9.95;;
44270;SDS011;29963;44.594;11.368;2022-10-16T08:22:59;11.70;;;9.80;;
44270;SDS011;29963;44.594;11.368;2022-10-16T08:25:25;14.15;;;10.65;;
44270;SDS011;29963;44.594;11.368;2022-10-16T08:27:51;11.35;;;10.15;;
44270;SDS011;29963;44.594;11.368;2022-10-16T08:30:17;12.18;;;10.52;;
44270;SDS011;29963;44.594;11.368;2022-10-16T08:32:45;13.27;;;10.18;;
44270;SDS011;29963;44.594;11.368;2022-10-16T08:35:11;15.10;;;11.10;;
44270;SDS011;29963;44.594;11.368;2022-10-16T08:37:40;16.27;;;12.38;;
44270;SDS011;29963;44.594;11.368;2022-10-16T08:40:07;14.48;;;12.95;;
44270;SDS011;29963;44.594;11.368;2022-10-16T08:48:17;18.45;;;13.73;;
44270;SDS011;29963;44.594;11.368;2022-10-16T08:51:07;20.77;;;16.48;;
44270;SDS011;29963;44.594;11.368;2022-10-16T08:54:26;15.70;;;13.90;;
44270;SDS011;29963;44.594;11.368;2022-10-16T08:56:29;17.15;;;13.75;;
44270;SDS011;29963;44.594;11.368;2022-10-16T08:58:58;14.02;;;12.32;;
44270;SDS011;29963;44.594;11.368;2022-10-16T09:01:27;22.20;;;15.65;;
44270;SDS011;29963;44.594;11.368;2022-10-16T09:12:31;19.30;;;16.23;;
44270;SDS011;29963;44.594;11.368;2022-10-16T09:18:10;16.65;;;14.82;;
44270;SDS011;29963;44.594;11.368;2022-10-16T09:20:53;22.00;;;17.05;;
44270;SDS011;29963;44.594;11.368;2022-10-16T09:23:40;15.05;;;13.57;;
44270;SDS011;29963;44.594;11.368;2022-10-16T09:26:09;15.43;;;13.50;;
44270;SDS011;29963;44.594;11.368;2022-10-16T09:28:38;16.38;;;14.15;;
44270;SDS011;29963;44.594;11.368;2022-10-16T09:31:04;17.25;;;15.23;;
44270;SDS011;29963;44.594;11.368;2022-10-16T09:33:33;22.17;;;14.75;;
44270;SDS011;29963;44.594;11.368;2022-10-16T09:36:03;22.25;;;19.15;;
44270;SDS011;29963;44.594;11.368;2022-10-16T09:38:31;21.02;;;18.38;;
44270;SDS011;29963;44.594;11.368;2022-10-16T09:41:02;24.98;;;17.15;;
44270;SDS011;29963;44.594;11.368;2022-10-16T09:43:56;21.27;;;18.45;;
44270;SDS011;29963;44.594;11.368;2022-10-16T09:46:28;17.65;;;15.85;;
44270;SDS011;29963;44.594;11.368;2022-10-16T09:49:49;22.90;;;16.02;;
44270;SDS011;29963;44.594;11.368;2022-10-16T09:51:51;23.52;;;19.40;;
44270;SDS011;29963;44.594;11.368;2022-10-16T09:54:35;19.95;;;17.33;;
44270;SDS011;29963;44.594;11.368;2022-10-16T09:57:07;21.75;;;16.58;;
44270;SDS011;29963;44.594;11.368;2022-10-16T09:59:45;16.98;;;14.85;;
44270;SDS011;29963;44.594;11.368;2022-10-16T10:04:59;18.30;;;16.35;;
44270;SDS011;29963;44.594;11.368;2022-10-16T10:07:27;19.33;;;17.30;;
44270;SDS011;29963;44.594;11.368;2022-10-16T10:09:58;19.25;;;15.95;;
44270;SDS011;29963;44.594;11.368;2022-10-16T10:12:24;20.92;;;18.80;;
44270;SDS011;29963;44.594;11.368;2022-10-16T10:14:52;18.10;;;16.10;;
44270;SDS011;29963;44.594;11.368;2022-10-16T10:17:21;15.82;;;14.15;;
44270;SDS011;29963;44.594;11.368;2022-10-16T10:19:50;20.10;;;16.30;;
44270;SDS011;29963;44.594;11.368;2022-10-16T10:27:20;21.13;;;16.65;;
44270;SDS011;29963;44.594;11.368;2022-10-16T10:30:07;21.98;;;16.65;;
44270;SDS011;29963;44.594;11.368;2022-10-16T10:35:17;19.75;;;16.70;;
44270;SDS011;29963;44.594;11.368;2022-10-16T10:45:50;22.42;;;19.30;;
44270;SDS011;29963;44.594;11.368;2022-10-16T10:48:45;20.95;;;18.60;;
44270;SDS011;29963;44.594;11.368;2022-10-16T10:56:47;19.30;;;16.60;;
44270;SDS011;29963;44.594;11.368;2022-10-16T11:05:08;17.42;;;15.55;;
44270;SDS011;29963;44.594;11.368;2022-10-16T11:07:51;15.55;;;13.88;;
44270;SDS011;29963;44.594;11.368;2022-10-16T11:11:01;18.38;;;12.30;;
44270;SDS011;29963;44.594;11.368;2022-10-16T11:13:32;14.73;;;12.77;;
44270;SDS011;29963;44.594;11.368;2022-10-16T11:16:01;14.82;;;12.60;;
44270;SDS011;29963;44.594;11.368;2022-10-16T11:18:54;16.48;;;14.82;;
44270;SDS011;29963;44.594;11.368;2022-10-16T11:21:46;14.23;;;12.32;;
44270;SDS011;29963;44.594;11.368;2022-10-16T11:24:34;15.00;;;13.02;;
44270;SDS011;29963;44.594;11.368;2022-10-16T11:27:30;14.75;;;11.98;;
44270;SDS011;29963;44.594;11.368;2022-10-16T19:17:17;15.93;;;12.10;;
44270;SDS011;29963;44.594;11.368;2022-10-16T19:19:43;17.75;;;12.88;;
44270;SDS011;29963;44.594;11.368;2022-10-16T19:22:09;21.50;;;13.50;;
44270;SDS011;29963;44.594;11.368;2022-10-16T19:25:05;15.63;;;11.90;;
44270;SDS011;29963;44.594;11.368;2022-10-16T19:27:31;13.05;;;11.65;;
44270;SDS011;29963;44.594;11.368;2022-10-16T19:29:56;22.00;;;12.23;;
44270;SDS011;29963;44.594;11.368;2022-10-16T19:32:22;14.95;;;13.13;;
44270;SDS011;29963;44.594;11.368;2022-10-16T19:34:49;14.63;;;12.30;;
44270;SDS011;29963;44.594;11.368;2022-10-16T19:37:15;21.00;;;14.30;;
44270;SDS011;29963;44.594;11.368;2022-10-16T19:39:40;16.55;;;13.15;;
44270;SDS011;29963;44.594;11.368;2022-10-16T19:42:06;14.48;;;12.95;;
44270;SDS011;29963;44.594;11.368;2022-10-16T19:44:32;20.15;;;13.90;;
44270;SDS011;29963;44.594;11.368;2022-10-16T19:46:57;20.80;;;15.68;;
44270;SDS011;29963;44.594;11.368;2022-10-16T19:49:23;18.15;;;12.95;;
44270;SDS011;29963;44.594;11.368;2022-10-16T19:51:49;16.42;;;13.15;;
44270;SDS011;29963;44.594;11.368;2022-10-16T19:54:18;19.30;;;14.30;;
44270;SDS011;29963;44.594;11.368;2022-10-16T19:56:44;19.30;;;14.88;;
44270;SDS011;29963;44.594;11.368;2022-10-16T19:59:10;14.52;;;13.02;;
44270;SDS011;29963;44.594;11.368;2022-10-16T20:01:43;18.83;;;14.23;;
44270;SDS011;29963;44.594;11.368;2022-10-16T20:04:09;15.95;;;14.20;;
44270;SDS011;29963;44.594;11.368;2022-10-16T20:06:38;15.45;;;13.25;;
44270;SDS011;29963;44.594;11.368;2022-10-16T20:09:04;17.35;;;14.95;;
44270;SDS011;29963;44.594;11.368;2022-10-16T20:11:30;14.75;;;13.20;;
44270;SDS011;29963;44.594;11.368;2022-10-16T20:13:57;20.05;;;15.82;;
44270;SDS011;29963;44.594;11.368;2022-10-16T20:16:24;20.70;;;14.32;;
44270;SDS011;29963;44.594;11.368;2022-10-16T20:18:51;18.15;;;14.50;;
44270;SDS011;29963;44.594;11.368;2022-10-16T20:21:18;15.70;;;13.90;;
44270;SDS011;29963;44.594;11.368;2022-10-16T20:23:46;19.80;;;14.60;;
44270;SDS011;29963;44.594;11.368;2022-10-16T20:26:13;15.73;;;14.13;;
44270;SDS011;29963;44.594;11.368;2022-10-16T20:28:40;17.33;;;14.50;;
44270;SDS011;29963;44.594;11.368;2022-10-16T20:31:25;20.20;;;14.55;;
44270;SDS011;29963;44.594;11.368;2022-10-16T20:33:53;22.35;;;15.02;;
44270;SDS011;29963;44.594;11.368;2022-10-16T20:36:20;17.83;;;15.35;;
44270;SDS011;29963;44.594;11.368;2022-10-16T20:38:47;16.50;;;14.75;;
44270;SDS011;29963;44.594;11.368;2022-10-16T20:41:14;19.67;;;16.95;;
44270;SDS011;29963;44.594;11.368;2022-10-16T20:43:42;23.83;;;16.10;;
44270;SDS011;29963;44.594;11.368;2022-10-16T20:46:09;23.85;;;16.05;;
44270;SDS011;29963;44.594;11.368;2022-10-16T20:48:40;18.73;;;16.70;;
44270;SDS011;29963;44.594;11.368;2022-10-16T20:51:14;24.02;;;16.80;;
44270;SDS011;29963;44.594;11.368;2022-10-16T20:53:43;21.90;;;17.67;;
44270;SDS011;29963;44.594;11.368;2022-10-16T20:56:10;21.00;;;16.90;;
44270;SDS011;29963;44.594;11.368;2022-10-16T20:58:38;21.20;;;17.45;;
44270;SDS011;29963;44.594;11.368;2022-10-16T21:01:09;26.33;;;17.90;;
44270;SDS011;29963;44.594;11.368;2022-10-16T21:03:36;24.58;;;16.80;;
44270;SDS011;29963;44.594;11.368;2022-10-16T21:06:03;19.92;;;17.15;;
44270;SDS011;29963;44.594;11.368;2022-10-16T21:08:33;23.60;;;18.33;;
44270;SDS011;29963;44.594;11.368;2022-10-16T21:10:59;19.85;;;16.40;;
44270;SDS011;29963;44.594;11.368;2022-10-16T21:13:25;21.42;;;17.73;;
44270;SDS011;29963;44.594;11.368;2022-10-16T21:15:51;19.42;;;17.48;;
44270;SDS011;29963;44.594;11.368;2022-10-16T21:18:16;23.80;;;17.30;;
44270;SDS011;29963;44.594;11.368;2022-10-16T21:20:42;21.80;;;17.60;;
44270;SDS011;29963;44.594;11.368;2022-10-16T21:23:08;25.15;;;18.30;;
44270;SDS011;29963;44.594;11.368;2022-10-16T21:25:34;26.20;;;19.13;;
44270;SDS011;29963;44.594;11.368;2022-10-16T21:28:00;22.48;;;18.13;;
44270;SDS011;29963;44.594;11.368;2022-10-16T21:30:26;25.92;;;20.40;;
44270;SDS011;29963;44.594;11.368;2022-10-16T21:32:51;22.77;;;20.20;;
44270;SDS011;29963;44.594;11.368;2022-10-16T21:35:17;20.95;;;18.33;;
44270;SDS011;29963;44.594;11.368;2022-10-16T21:37:48;23.60;;;19.58;;
44270;SDS011;29963;44.594;11.368;2022-10-16T21:40:14;28.08;;;19.25;;
44270;SDS011;29963;44.594;11.368;2022-10-16T21:42:40;23.45;;;18.75;;
44270;SDS011;29963;44.594;11.368;2022-10-16T21:45:05;22.88;;;19.35;;
44270;SDS011;29963;44.594;11.368;2022-10-16T21:47:31;25.35;;;20.00;;
44270;SDS011;29963;44.594;11.368;2022-10-16T21:49:58;27.02;;;20.65;;
44270;SDS011;29963;44.594;11.368;2022-10-16T21:52:23;24.00;;;20.98;;
44270;SDS011;29963;44.594;11.368;2022-10-16T21:54:49;25.98;;;19.13;;
44270;SDS011;29963;44.594;11.368;2022-10-16T21:57:14;27.80;;;21.73;;
44270;SDS011;29963;44.594;11.368;2022-10-16T21:59:40;24.35;;;20.95;;
44270;SDS011;29963;44.594;11.368;2022-10-16T22:02:06;32.08;;;21.08;;
44270;SDS011;29963;44.594;11.368;2022-10-16T22:04:31;27.02;;;21.80;;
44270;SDS011;29963;44.594;11.368;2022-10-16T22:06:57;23.65;;;21.00;;
44270;SDS011;29963;44.594;11.368;2022-10-16T22:09:23;25.15;;;22.23;;
44270;SDS011;29963;44.594;11.368;2022-10-16T22:11:49;29.08;;;23.63;;
44270;SDS011;29963;44.594;11.368;2022-10-16T22:14:16;28.98;;;24.48;;
44270;SDS011;29963;44.594;11.368;2022-10-16T22:16:42;26.65;;;23.85;;
44270;SDS011;29963;44.594;11.368;2022-10-16T22:19:09;30.20;;;25.23;;
44270;SDS011;29963;44.594;11.368;2022-10-16T22:21:37;31.20;;;24.88;;
44270;SDS011;29963;44.594;11.368;2022-10-16T22:24:04;27.33;;;23.20;;
44270;SDS011;29963;44.594;11.368;2022-10-16T22:26:30;27.52;;;23.20;;
44270;SDS011;29963;44.594;11.368;2022-10-16T22:28:56;29.10;;;24.30;;
44270;SDS011;29963;44.594;11.368;2022-10-16T22:31:22;33.00;;;24.27;;
44270;SDS011;29963;44.594;11.368;2022-10-16T22:33:52;25.85;;;22.95;;
44270;SDS011;29963;44.594;11.368;2022-10-16T22:36:18;32.13;;;23.13;;
44270;SDS011;29963;44.594;11.368;2022-10-16T22:38:44;30.15;;;25.00;;
44270;SDS011;29963;44.594;11.368;2022-10-16T22:41:11;29.23;;;23.60;;
44270;SDS011;29963;44.594;11.368;2022-10-16T22:43:38;28.33;;;24.23;;
44270;SDS011;29963;44.594;11.368;2022-10-16T22:46:14;29.90;;;23.17;;
44270;SDS011;29963;44.594;11.368;2022-10-16T22:48:42;25.75;;;22.38;;
44270;SDS011;29963;44.594;11.368;2022-10-16T22:51:08;28.67;;;24.05;;
44270;SDS011;29963;44.594;11.368;2022-10-16T22:53:40;27.45;;;24.45;;
44270;SDS011;29963;44.594;11.368;2022-10-16T22:56:06;35.17;;;25.73;;
44270;SDS011;29963;44.594;11.368;2022-10-16T22:58:33;26.73;;;23.85;;
44270;SDS011;29963;44.594;11.368;2022-10-16T23:00:58;26.55;;;23.67;;
44270;SDS011;29963;44.594;11.368;2022-10-16T23:03:24;26.98;;;23.98;;
44270;SDS011;29963;44.594;11.368;2022-10-16T23:05:50;28.52;;;25.00;;
44270;SDS011;29963;44.594;11.368;2022-10-16T23:08:16;30.17;;;25.80;;
44270;SDS011;29963;44.594;11.368;2022-10-16T23:10:42;28.33;;;23.15;;
44270;SDS011;29963;44.594;11.368;2022-10-16T23:13:09;35.50;;;25.73;;
44270;SDS011;29963;44.594;11.368;2022-10-16T23:15:39;29.42;;;26.05;;
44270;SDS011;29963;44.594;11.368;2022-10-16T23:18:06;26.92;;;23.02;;
44270;SDS011;29963;44.594;11.368;2022-10-16T23:20:32;29.92;;;25.83;;